Latest Weather Observations for Portland Harbour

IDV60801

Issued at 11:42 pm EDT Sunday 24 October 2021 (issued every 10 minutes, with the page automatically refreshed every 10 minutes)

About weather observations | Map of weather stations | Latest weather observations for VIC | Other Formats
Station Details ID: 090192 Name: PORTLAND NTC AWS Lat: -38.34 Lon: 141.61 Height: 0.0 m
Data from the previous 72 hours. | See also: Recent months for locations in Victoria
Date/Time
EDT
Temp
°C
App
Temp
°C
Dew
Point
°C
Rel
Hum
%
Delta-T
°C
Wind Press
QNH
hPa
Press
MSL
hPa
Rain since
9am
mm
Dir  Spd
km/h
Gust
km/h
Spd
kts
Gust
kts
24/11:30pm 12.0 - - - - SSE 13 20 7 11 1024.6 1024.6 -
24/11:00pm 11.8 - - - - S 13 20 7 11 1024.9 1024.9 -
24/10:30pm 11.8 - - - - S 13 19 7 10 1025.1 1025.1 -
24/10:00pm 11.8 - - - - S 19 26 10 14 1025.4 1025.4 -
24/09:30pm 12.0 - - - - S 22 30 12 16 1025.4 1025.4 -
24/09:00pm 11.9 - - - - S 15 24 8 13 1025.2 1025.2 -
24/08:30pm 11.8 - - - - S 15 22 8 12 1025.0 1025.0 -
24/08:00pm 12.1 - - - - S 19 28 10 15 1024.8 1024.8 -
24/07:30pm 12.3 - - - - S 20 30 11 16 1024.6 1024.6 -
24/07:00pm 12.3 - - - - SSE 19 30 10 16 1024.6 1024.6 -
24/06:30pm 12.7 - - - - S 19 26 10 14 1024.6 1024.6 -
24/06:00pm 12.6 - - - - S 22 30 12 16 1024.6 1024.6 -
24/05:30pm 12.5 - - - - S 22 32 12 17 1024.6 1024.6 -
24/05:00pm 12.3 - - - - S 20 30 11 16 1024.6 1024.6 -
24/04:30pm 12.8 - - - - S 24 37 13 20 1024.6 1024.6 -
24/04:00pm 12.7 - - - - S 22 32 12 17 1024.7 1024.7 -
24/03:30pm 12.9 - - - - S 20 30 11 16 1024.9 1024.9 -
24/03:00pm 13.0 - - - - S 24 35 13 19 1025.0 1025.0 -
24/02:30pm 13.0 - - - - SSW 24 33 13 18 1025.2 1025.2 -
24/02:00pm 13.0 - - - - S 24 35 13 19 1025.2 1025.2 -
24/01:30pm 12.7 - - - - S 22 30 12 16 1025.4 1025.4 -
24/01:00pm 12.7 - - - - S 24 33 13 18 1025.6 1025.6 -
24/12:30pm 13.1 - - - - SSW 24 32 13 17 1025.7 1025.7 -
24/12:00pm 12.7 - - - - S 24 32 13 17 1025.8 1025.8 -
24/11:30am 12.6 - - - - SSW 24 30 13 16 1025.8 1025.8 -
24/11:00am 12.4 - - - - S 26 35 14 19 1025.8 1025.8 -
24/10:30am 12.3 - - - - S 32 39 17 21 1025.6 1025.6 -
24/10:00am 12.5 - - - - S 24 33 13 18 1025.5 1025.5 -
24/09:30am 12.4 - - - - S 24 30 13 16 1025.4 1025.4 -
24/09:00am 12.4 - - - - SSW 26 33 14 18 1025.3 1025.3 -
24/08:30am 13.0 - - - - S 20 30 11 16 1025.0 1025.0 -
24/08:00am 12.4 - - - - SSW 20 30 11 16 1024.7 1024.7 -
24/07:30am 12.2 - - - - S 20 30 11 16 1024.3 1024.3 -
24/07:00am 11.9 - - - - S 20 30 11 16 1024.0 1024.0 -
24/06:30am 11.9 - - - - SSW 20 28 11 15 1023.6 1023.6 -
24/06:00am 11.7 - - - - SSW 20 28 11 15 1023.5 1023.5 -
24/05:30am 11.9 - - - - S 24 32 13 17 1023.4 1023.4 -
24/05:00am 11.4 - - - - S 30 43 16 23 1023.5 1023.5 -
24/04:58am 11.3 - - - - S 30 43 16 23 1023.5 1023.5 -
24/04:30am 12.1 - - - - SSW 15 24 8 13 1023.3 1023.3 -
24/04:00am 11.9 - - - - SSW 15 20 8 11 1023.3 1023.3 -
24/03:30am 12.4 - - - - SSW 20 28 11 15 1023.3 1023.3 -
24/03:00am 12.3 - - - - S 15 24 8 13 1023.3 1023.3 -
24/02:30am 12.1 - - - - S 15 22 8 12 1023.5 1023.5 -
24/02:00am 12.1 - - - - S 17 24 9 13 1023.7 1023.7 -
24/01:30am 12.4 - - - - S 19 26 10 14 1023.9 1023.9 -
24/01:00am 12.4 - - - - S 15 22 8 12 1023.8 1023.8 -
24/12:30am 12.4 - - - - S 17 24 9 13 1023.7 1023.7 -
24/12:00am 12.4 - - - - S 17 22 9 12 1023.8 1023.8 -
 
Date/Time
EDT
Temp
°C
App
Temp
°C
Dew
Point
°C
Rel
Hum
%
Delta-T
°C
Wind Press
QNH
hPa
Press
MSL
hPa
Rain since
9am
mm
Dir  Spd
km/h
Gust
km/h
Spd
kts
Gust
kts
23/11:30pm 12.3 - - - - S 22 30 12 16 1023.7 1023.7 -
23/11:00pm 12.8 - - - - S 19 30 10 16 1023.5 1023.5 -
23/10:30pm 13.0 - - - - S 19 26 10 14 1023.4 1023.4 -
23/10:00pm 12.9 - - - - S 17 20 9 11 1023.4 1023.4 -
23/09:30pm 12.9 - - - - S 17 20 9 11 1022.9 1022.9 -
23/09:00pm 13.0 - - - - S 19 28 10 15 1022.6 1022.6 -
23/08:30pm 13.1 - - - - S 19 28 10 15 1022.2 1022.2 -
23/08:00pm 13.1 - - - - S 19 28 10 15 1021.7 1021.7 -
23/07:30pm 13.4 - - - - SSW 24 32 13 17 1021.3 1021.3 -
23/07:00pm 13.4 - - - - SSW 24 35 13 19 1021.0 1021.0 -
23/06:30pm 13.6 - - - - S 24 35 13 19 1020.6 1020.6 -
23/06:00pm 13.7 - - - - S 28 35 15 19 1020.3 1020.3 -
23/05:30pm 13.7 - - - - S 24 35 13 19 1019.9 1019.9 -
23/05:00pm 13.5 - - - - S 24 35 13 19 1019.7 1019.7 -
23/04:30pm 14.0 - - - - SSW 20 30 11 16 1019.5 1019.5 -
23/04:00pm 14.3 - - - - SSW 24 33 13 18 1019.3 1019.3 -
23/03:30pm 13.8 - - - - S 24 33 13 18 1019.2 1019.2 -
23/03:00pm 13.7 - - - - S 22 32 12 17 1019.2 1019.2 -
23/02:30pm 13.5 - - - - SE 17 24 9 13 1018.9 1018.9 -
23/02:00pm 13.4 - - - - S 20 28 11 15 1018.9 1018.9 -
23/01:30pm 13.0 - - - - S 24 33 13 18 1019.0 1019.0 -
23/01:00pm 13.0 - - - - SSW 20 28 11 15 1018.9 1018.9 -
23/12:30pm 12.2 - - - - SW 17 26 9 14 1018.8 1018.8 -
23/12:00pm 11.5 - - - - SW 19 24 10 13 1018.8 1018.8 -
23/11:30am 11.2 - - - - SW 17 20 9 11 1018.7 1018.7 -
23/11:00am 12.0 - - - - SSW 13 17 7 9 1018.2 1018.2 -
23/10:30am 11.9 - - - - SW 7 11 4 6 1017.9 1017.9 -
23/10:00am 12.4 - - - - SW 11 17 6 9 1017.8 1017.8 -
23/09:30am 12.4 - - - - S 13 19 7 10 1017.5 1017.5 -
23/09:00am 11.7 - - - - SW 11 15 6 8 1017.3 1017.3 -
23/08:30am 12.0 - - - - S 13 17 7 9 1017.0 1017.0 -
23/08:00am 11.9 - - - - SSW 7 13 4 7 1017.0 1017.0 -
23/07:30am 11.6 - - - - S 9 13 5 7 1016.7 1016.7 -
23/07:00am 11.3 - - - - S 7 11 4 6 1016.5 1016.5 -
23/06:30am 11.5 - - - - S 9 15 5 8 1016.1 1016.1 -
23/06:00am 11.6 - - - - WSW 9 17 5 9 1015.9 1015.9 -
23/05:30am 11.7 - - - - SSW 9 15 5 8 1015.8 1015.8 -
23/05:00am 11.9 - - - - S 9 15 5 8 1015.6 1015.6 -
23/04:30am 12.4 - - - - S 15 20 8 11 1015.5 1015.5 -
23/04:00am 12.9 - - - - S 13 19 7 10 1015.5 1015.5 -
23/03:30am 12.7 - - - - S 13 19 7 10 1015.3 1015.3 -
23/03:00am 12.3 - - - - S 15 20 8 11 1015.5 1015.5 -
23/02:30am 12.8 - - - - S 17 22 9 12 1015.6 1015.6 -
23/02:00am 13.3 - - - - S 11 17 6 9 1015.9 1015.9 -
23/01:30am 13.3 - - - - S 13 19 7 10 1015.9 1015.9 -
23/01:00am 13.4 - - - - S 9 13 5 7 1016.0 1016.0 -
23/12:30am 13.3 - - - - SSE 7 11 4 6 1015.9 1015.9 -
23/12:00am 13.3 - - - - SSE 6 9 3 5 1016.0 1016.0 -
 
Date/Time
EDT
Temp
°C
App
Temp
°C
Dew
Point
°C
Rel
Hum
%
Delta-T
°C
Wind Press
QNH
hPa
Press
MSL
hPa
Rain since
9am
mm
Dir  Spd
km/h
Gust
km/h
Spd
kts
Gust
kts
22/11:30pm 13.2 - - - - SSE 13 19 7 10 1015.7 1015.7 -
22/11:00pm 13.2 - - - - S 17 22 9 12 1016.1 1016.1 -
22/10:30pm 13.0 - - - - S 20 28 11 15 1016.2 1016.2 -
22/10:00pm 12.8 - - - - SSW 26 33 14 18 1016.3 1016.3 -
22/09:30pm 13.1 - - - - SSW 24 35 13 19 1016.1 1016.1 -
22/09:00pm 14.1 - - - - SSW 20 28 11 15 1015.7 1015.7 -
22/08:30pm 14.3 - - - - S 19 24 10 13 1015.3 1015.3 -
22/08:00pm 14.3 - - - - SSW 17 22 9 12 1015.1 1015.1 -
22/07:30pm 14.6 - - - - SSW 19 26 10 14 1014.7 1014.7 -
22/07:00pm 14.4 - - - - SSW 19 24 10 13 1014.4 1014.4 -
22/06:30pm 14.6 - - - - SSW 19 24 10 13 1014.4 1014.4 -
22/06:00pm 14.8 - - - - SSW 15 22 8 12 1014.3 1014.3 -
22/05:30pm 14.7 - - - - SSW 20 26 11 14 1013.9 1013.9 -
22/05:00pm 15.0 - - - - SSW 22 28 12 15 1013.7 1013.7 -
22/04:30pm 15.4 - - - - SSW 22 30 12 16 1013.6 1013.6 -
22/04:00pm 15.4 - - - - SSW 20 28 11 15 1013.5 1013.5 -
22/03:30pm 15.7 - - - - S 13 20 7 11 1013.4 1013.4 -
22/03:00pm 15.7 - - - - S 17 24 9 13 1013.4 1013.4 -
22/02:30pm 15.2 - - - - SSW 17 22 9 12 1013.9 1013.9 -
22/02:00pm 15.7 - - - - SSW 17 22 9 12 1013.9 1013.9 -
22/01:30pm 15.6 - - - - S 11 17 6 9 1014.0 1014.0 -
22/01:00pm 15.4 - - - - S 7 17 4 9 1014.0 1014.0 -
22/12:30pm 14.4 - - - - E 4 7 2 4 1014.2 1014.2 -
22/12:00pm 14.3 - - - - ENE 7 9 4 5 1014.3 1014.3 -
22/11:30am 14.2 - - - - ENE 6 6 3 3 1014.6 1014.6 -
22/11:00am 14.1 - - - - ENE 7 9 4 5 1014.5 1014.5 -
22/10:30am 13.9 - - - - ENE 6 7 3 4 1014.6 1014.6 -
22/10:00am 13.9 - - - - NNE 7 7 4 4 1014.6 1014.6 -
22/09:30am 14.1 - - - - N 4 6 2 3 1014.5 1014.5 -
22/09:00am 13.7 - - - - N 6 7 3 4 1014.4 1014.4 -
22/08:30am 13.5 - - - - N 7 11 4 6 1014.5 1014.5 -
22/08:00am 13.5 - - - - N 7 7 4 4 1014.4 1014.4 -
22/07:30am 13.6 - - - - NW 2 4 1 2 1014.4 1014.4 -
22/07:00am 12.4 - - - - W 4 7 2 4 1014.2 1014.2 -
22/06:30am 11.9 - - - - SW 7 9 4 5 1014.1 1014.1 -
22/06:00am 12.2 - - - - SW 6 7 3 4 1013.8 1013.8 -
22/05:30am 13.1 - - - - SW 4 4 2 2 1013.6 1013.6 -
22/05:00am 13.4 - - - - CALM 0 2 0 1 1013.6 1013.6 -
22/04:30am 13.6 - - - - W 2 4 1 2 1013.6 1013.6 -
22/04:00am 13.9 - - - - W 6 9 3 5 1013.9 1013.9 -
22/03:30am 14.1 - - - - WSW 9 13 5 7 1014.1 1014.1 -
22/03:00am 14.2 - - - - W 7 11 4 6 1014.2 1014.2 -
22/02:30am 14.2 - - - - WNW 9 15 5 8 1014.2 1014.2 -
22/02:00am 14.3 - - - - WNW 6 9 3 5 1014.5 1014.5 -
22/01:30am 14.4 - - - - W 11 15 6 8 1014.8 1014.8 -
22/01:00am 14.4 - - - - WSW 9 17 5 9 1015.1 1015.1 -
22/12:30am 14.4 - - - - WNW 7 13 4 7 1015.0 1015.0 -
22/12:00am 14.5 - - - - WNW 7 11 4 6 1015.1 1015.1 -

Other formats

Comma delimited format used in spreadsheet applications
http://www.bom.gov.au/fwo/IDV60801/IDV60801.95826.axf

JavaScript Object Notation format (JSON) in row-major order
http://www.bom.gov.au/fwo/IDV60801/IDV60801.95826.json

Data quality

Most of these data are generated automatically and are frequently updated. Quality checks on data are not normally performed. It is possible for incorrect values to appear. Refer to information at About Latest Weather Observations and please check the disclaimer before using these data.